sensor_id;sensor_type;location;lat;lon;timestamp;P1;durP1;ratioP1;P2;durP2;ratioP2
38358;SDS011;42072;48.044;14.416;2023-05-29T00:00:51;11.23;;;7.47;;
38358;SDS011;42072;48.044;14.416;2023-05-29T00:03:18;13.25;;;7.03;;
38358;SDS011;42072;48.044;14.416;2023-05-29T00:05:46;11.30;;;7.63;;
38358;SDS011;42072;48.044;14.416;2023-05-29T00:08:13;14.35;;;7.53;;
38358;SDS011;42072;48.044;14.416;2023-05-29T00:10:41;10.02;;;6.32;;
38358;SDS011;42072;48.044;14.416;2023-05-29T00:13:08;9.35;;;6.57;;
38358;SDS011;42072;48.044;14.416;2023-05-29T00:15:36;12.65;;;7.00;;
38358;SDS011;42072;48.044;14.416;2023-05-29T00:18:03;11.60;;;6.72;;
38358;SDS011;42072;48.044;14.416;2023-05-29T00:20:31;11.52;;;7.28;;
38358;SDS011;42072;48.044;14.416;2023-05-29T00:23:00;12.02;;;6.75;;
38358;SDS011;42072;48.044;14.416;2023-05-29T00:25:32;13.00;;;7.10;;
38358;SDS011;42072;48.044;14.416;2023-05-29T00:27:59;15.40;;;6.95;;
38358;SDS011;42072;48.044;14.416;2023-05-29T00:30:27;13.63;;;7.40;;
38358;SDS011;42072;48.044;14.416;2023-05-29T00:32:54;14.05;;;7.28;;
38358;SDS011;42072;48.044;14.416;2023-05-29T00:35:22;12.57;;;7.40;;
38358;SDS011;42072;48.044;14.416;2023-05-29T00:37:49;11.48;;;6.85;;
38358;SDS011;42072;48.044;14.416;2023-05-29T00:40:16;11.63;;;6.88;;
38358;SDS011;42072;48.044;14.416;2023-05-29T00:42:43;13.30;;;7.38;;
38358;SDS011;42072;48.044;14.416;2023-05-29T00:45:10;10.45;;;6.65;;
38358;SDS011;42072;48.044;14.416;2023-05-29T00:47:40;11.90;;;7.03;;
38358;SDS011;42072;48.044;14.416;2023-05-29T00:50:08;14.05;;;6.95;;
38358;SDS011;42072;48.044;14.416;2023-05-29T00:52:37;11.50;;;6.45;;
38358;SDS011;42072;48.044;14.416;2023-05-29T00:55:06;10.85;;;6.80;;
38358;SDS011;42072;48.044;14.416;2023-05-29T00:57:34;9.95;;;6.47;;
38358;SDS011;42072;48.044;14.416;2023-05-29T01:00:04;12.07;;;7.28;;
38358;SDS011;42072;48.044;14.416;2023-05-29T01:02:36;11.32;;;6.50;;
38358;SDS011;42072;48.044;14.416;2023-05-29T01:05:06;11.55;;;6.65;;
38358;SDS011;42072;48.044;14.416;2023-05-29T01:07:36;12.48;;;6.75;;
38358;SDS011;42072;48.044;14.416;2023-05-29T01:10:04;11.82;;;6.70;;
38358;SDS011;42072;48.044;14.416;2023-05-29T01:12:38;17.33;;;6.97;;
38358;SDS011;42072;48.044;14.416;2023-05-29T01:15:20;11.05;;;6.60;;
38358;SDS011;42072;48.044;14.416;2023-05-29T01:24:03;10.57;;;6.25;;
38358;SDS011;42072;48.044;14.416;2023-05-29T01:29:19;10.33;;;6.40;;
38358;SDS011;42072;48.044;14.416;2023-05-29T01:31:52;11.18;;;6.70;;
38358;SDS011;42072;48.044;14.416;2023-05-29T01:34:20;11.27;;;5.85;;
38358;SDS011;42072;48.044;14.416;2023-05-29T01:36:48;11.93;;;6.68;;
38358;SDS011;42072;48.044;14.416;2023-05-29T01:39:15;10.80;;;6.32;;
38358;SDS011;42072;48.044;14.416;2023-05-29T01:41:45;11.48;;;6.57;;
38358;SDS011;42072;48.044;14.416;2023-05-29T01:44:13;12.93;;;6.68;;
38358;SDS011;42072;48.044;14.416;2023-05-29T01:46:41;12.60;;;7.10;;
38358;SDS011;42072;48.044;14.416;2023-05-29T01:49:09;12.13;;;7.05;;
38358;SDS011;42072;48.044;14.416;2023-05-29T01:51:39;11.20;;;6.43;;
38358;SDS011;42072;48.044;14.416;2023-05-29T01:54:07;10.88;;;6.75;;
38358;SDS011;42072;48.044;14.416;2023-05-29T01:56:34;12.13;;;6.80;;
38358;SDS011;42072;48.044;14.416;2023-05-29T01:59:03;9.77;;;6.25;;
38358;SDS011;42072;48.044;14.416;2023-05-29T02:01:30;13.23;;;6.32;;
38358;SDS011;42072;48.044;14.416;2023-05-29T02:03:59;10.82;;;6.40;;
38358;SDS011;42072;48.044;14.416;2023-05-29T02:06:27;12.68;;;6.70;;
38358;SDS011;42072;48.044;14.416;2023-05-29T02:08:54;12.88;;;6.18;;
38358;SDS011;42072;48.044;14.416;2023-05-29T02:11:21;12.73;;;6.57;;
38358;SDS011;42072;48.044;14.416;2023-05-29T02:13:48;9.88;;;6.03;;
38358;SDS011;42072;48.044;14.416;2023-05-29T02:16:16;11.90;;;6.50;;
38358;SDS011;42072;48.044;14.416;2023-05-29T02:18:43;10.23;;;6.55;;
38358;SDS011;42072;48.044;14.416;2023-05-29T02:21:10;11.75;;;6.35;;
38358;SDS011;42072;48.044;14.416;2023-05-29T02:23:38;12.93;;;7.00;;
38358;SDS011;42072;48.044;14.416;2023-05-29T02:26:05;11.73;;;6.90;;
38358;SDS011;42072;48.044;14.416;2023-05-29T02:28:33;12.57;;;6.85;;
38358;SDS011;42072;48.044;14.416;2023-05-29T02:31:00;10.07;;;6.22;;
38358;SDS011;42072;48.044;14.416;2023-05-29T02:33:28;11.73;;;6.45;;
38358;SDS011;42072;48.044;14.416;2023-05-29T02:35:56;12.68;;;6.90;;
38358;SDS011;42072;48.044;14.416;2023-05-29T02:38:24;12.07;;;6.90;;
38358;SDS011;42072;48.044;14.416;2023-05-29T02:40:51;13.50;;;6.78;;
38358;SDS011;42072;48.044;14.416;2023-05-29T02:43:21;12.55;;;6.43;;
38358;SDS011;42072;48.044;14.416;2023-05-29T02:45:48;12.77;;;7.38;;
38358;SDS011;42072;48.044;14.416;2023-05-29T02:48:16;12.40;;;5.97;;
38358;SDS011;42072;48.044;14.416;2023-05-29T02:50:43;13.52;;;7.07;;
38358;SDS011;42072;48.044;14.416;2023-05-29T02:53:11;11.68;;;6.32;;
38358;SDS011;42072;48.044;14.416;2023-05-29T02:55:38;11.20;;;6.75;;
38358;SDS011;42072;48.044;14.416;2023-05-29T02:58:05;9.43;;;6.05;;
38358;SDS011;42072;48.044;14.416;2023-05-29T03:00:32;10.10;;;6.85;;
38358;SDS011;42072;48.044;14.416;2023-05-29T03:03:00;8.98;;;6.22;;
38358;SDS011;42072;48.044;14.416;2023-05-29T03:05:27;9.80;;;6.43;;
38358;SDS011;42072;48.044;14.416;2023-05-29T03:07:54;11.90;;;6.88;;
38358;SDS011;42072;48.044;14.416;2023-05-29T03:10:22;9.75;;;6.90;;
38358;SDS011;42072;48.044;14.416;2023-05-29T03:12:49;12.65;;;7.15;;
38358;SDS011;42072;48.044;14.416;2023-05-29T03:15:17;9.98;;;6.18;;
38358;SDS011;42072;48.044;14.416;2023-05-29T03:17:47;10.63;;;5.75;;
38358;SDS011;42072;48.044;14.416;2023-05-29T03:20:14;10.98;;;5.90;;
38358;SDS011;42072;48.044;14.416;2023-05-29T03:22:42;9.85;;;5.80;;
38358;SDS011;42072;48.044;14.416;2023-05-29T03:25:09;9.55;;;6.78;;
38358;SDS011;42072;48.044;14.416;2023-05-29T03:27:37;13.35;;;6.40;;
38358;SDS011;42072;48.044;14.416;2023-05-29T03:30:04;9.80;;;6.45;;
38358;SDS011;42072;48.044;14.416;2023-05-29T03:32:32;12.15;;;6.85;;
38358;SDS011;42072;48.044;14.416;2023-05-29T03:34:59;11.65;;;7.10;;
38358;SDS011;42072;48.044;14.416;2023-05-29T03:37:27;11.82;;;6.43;;
38358;SDS011;42072;48.044;14.416;2023-05-29T03:39:54;9.18;;;5.70;;
38358;SDS011;42072;48.044;14.416;2023-05-29T03:42:21;11.75;;;6.43;;
38358;SDS011;42072;48.044;14.416;2023-05-29T03:44:48;9.23;;;6.32;;
38358;SDS011;42072;48.044;14.416;2023-05-29T03:47:15;10.38;;;6.18;;
38358;SDS011;42072;48.044;14.416;2023-05-29T03:49:43;11.52;;;6.07;;
38358;SDS011;42072;48.044;14.416;2023-05-29T03:52:10;11.48;;;6.60;;
38358;SDS011;42072;48.044;14.416;2023-05-29T03:54:37;10.57;;;5.40;;
38358;SDS011;42072;48.044;14.416;2023-05-29T03:57:05;9.18;;;5.65;;
38358;SDS011;42072;48.044;14.416;2023-05-29T03:59:33;8.63;;;5.50;;
38358;SDS011;42072;48.044;14.416;2023-05-29T04:02:00;10.45;;;5.90;;
38358;SDS011;42072;48.044;14.416;2023-05-29T04:04:28;11.80;;;6.43;;
38358;SDS011;42072;48.044;14.416;2023-05-29T04:06:55;9.55;;;5.72;;
38358;SDS011;42072;48.044;14.416;2023-05-29T04:09:23;11.25;;;6.07;;
38358;SDS011;42072;48.044;14.416;2023-05-29T04:11:50;10.27;;;5.88;;
38358;SDS011;42072;48.044;14.416;2023-05-29T04:14:18;10.18;;;5.70;;
38358;SDS011;42072;48.044;14.416;2023-05-29T04:16:46;9.32;;;5.70;;
38358;SDS011;42072;48.044;14.416;2023-05-29T04:19:13;10.18;;;6.10;;
38358;SDS011;42072;48.044;14.416;2023-05-29T04:21:40;10.30;;;5.88;;
38358;SDS011;42072;48.044;14.416;2023-05-29T04:24:08;10.98;;;5.55;;
38358;SDS011;42072;48.044;14.416;2023-05-29T04:26:37;9.65;;;5.47;;
38358;SDS011;42072;48.044;14.416;2023-05-29T04:29:08;9.68;;;5.20;;
38358;SDS011;42072;48.044;14.416;2023-05-29T04:31:38;8.27;;;5.13;;
38358;SDS011;42072;48.044;14.416;2023-05-29T04:34:06;8.35;;;5.15;;
38358;SDS011;42072;48.044;14.416;2023-05-29T04:36:34;13.07;;;5.72;;
38358;SDS011;42072;48.044;14.416;2023-05-29T04:39:05;8.35;;;5.57;;
38358;SDS011;42072;48.044;14.416;2023-05-29T04:41:34;11.80;;;5.28;;
38358;SDS011;42072;48.044;14.416;2023-05-29T04:44:01;6.18;;;4.50;;
38358;SDS011;42072;48.044;14.416;2023-05-29T04:46:30;8.15;;;5.38;;
38358;SDS011;42072;48.044;14.416;2023-05-29T04:48:58;8.68;;;4.97;;
38358;SDS011;42072;48.044;14.416;2023-05-29T04:51:25;7.55;;;5.20;;
38358;SDS011;42072;48.044;14.416;2023-05-29T04:53:55;9.95;;;5.00;;
38358;SDS011;42072;48.044;14.416;2023-05-29T04:56:23;8.20;;;4.88;;
38358;SDS011;42072;48.044;14.416;2023-05-29T04:58:50;7.60;;;5.32;;
38358;SDS011;42072;48.044;14.416;2023-05-29T05:01:17;9.48;;;5.05;;
38358;SDS011;42072;48.044;14.416;2023-05-29T05:03:44;10.63;;;5.65;;
38358;SDS011;42072;48.044;14.416;2023-05-29T05:06:11;7.40;;;4.55;;
38358;SDS011;42072;48.044;14.416;2023-05-29T05:08:39;8.52;;;5.13;;
38358;SDS011;42072;48.044;14.416;2023-05-29T05:11:06;11.93;;;5.97;;
38358;SDS011;42072;48.044;14.416;2023-05-29T05:13:33;9.32;;;5.47;;
38358;SDS011;42072;48.044;14.416;2023-05-29T05:16:00;9.00;;;5.15;;
38358;SDS011;42072;48.044;14.416;2023-05-29T05:18:29;8.73;;;5.28;;
38358;SDS011;42072;48.044;14.416;2023-05-29T05:20:56;9.30;;;5.70;;
38358;SDS011;42072;48.044;14.416;2023-05-29T05:23:24;9.75;;;5.93;;
38358;SDS011;42072;48.044;14.416;2023-05-29T05:25:52;9.10;;;4.97;;
38358;SDS011;42072;48.044;14.416;2023-05-29T05:28:19;8.52;;;5.28;;
38358;SDS011;42072;48.044;14.416;2023-05-29T05:30:46;10.38;;;5.35;;
38358;SDS011;42072;48.044;14.416;2023-05-29T05:33:14;7.35;;;5.03;;
38358;SDS011;42072;48.044;14.416;2023-05-29T05:35:41;8.95;;;5.35;;
38358;SDS011;42072;48.044;14.416;2023-05-29T05:38:09;7.65;;;5.13;;
38358;SDS011;42072;48.044;14.416;2023-05-29T05:40:36;7.20;;;4.97;;
38358;SDS011;42072;48.044;14.416;2023-05-29T05:43:03;8.30;;;5.00;;
38358;SDS011;42072;48.044;14.416;2023-05-29T05:45:32;9.15;;;4.90;;
38358;SDS011;42072;48.044;14.416;2023-05-29T05:47:59;7.88;;;5.13;;
38358;SDS011;42072;48.044;14.416;2023-05-29T05:50:28;7.53;;;5.40;;
38358;SDS011;42072;48.044;14.416;2023-05-29T05:52:55;7.07;;;5.00;;
38358;SDS011;42072;48.044;14.416;2023-05-29T05:55:22;8.70;;;5.40;;
38358;SDS011;42072;48.044;14.416;2023-05-29T05:57:49;12.05;;;5.15;;
38358;SDS011;42072;48.044;14.416;2023-05-29T06:00:17;8.65;;;5.13;;
38358;SDS011;42072;48.044;14.416;2023-05-29T06:02:44;7.85;;;4.90;;
38358;SDS011;42072;48.044;14.416;2023-05-29T06:05:12;7.43;;;5.22;;
38358;SDS011;42072;48.044;14.416;2023-05-29T06:07:39;10.93;;;5.30;;
38358;SDS011;42072;48.044;14.416;2023-05-29T06:10:06;7.82;;;5.38;;
38358;SDS011;42072;48.044;14.416;2023-05-29T06:12:34;8.95;;;5.22;;
38358;SDS011;42072;48.044;14.416;2023-05-29T06:15:02;7.15;;;5.07;;
38358;SDS011;42072;48.044;14.416;2023-05-29T06:17:30;7.75;;;5.03;;
38358;SDS011;42072;48.044;14.416;2023-05-29T06:19:58;8.55;;;5.53;;
38358;SDS011;42072;48.044;14.416;2023-05-29T06:22:27;7.40;;;5.10;;
38358;SDS011;42072;48.044;14.416;2023-05-29T06:24:54;10.63;;;5.15;;
38358;SDS011;42072;48.044;14.416;2023-05-29T06:27:21;12.32;;;5.35;;
38358;SDS011;42072;48.044;14.416;2023-05-29T06:29:52;12.15;;;5.50;;
38358;SDS011;42072;48.044;14.416;2023-05-29T06:32:19;9.27;;;5.50;;
38358;SDS011;42072;48.044;14.416;2023-05-29T06:34:46;10.70;;;5.65;;
38358;SDS011;42072;48.044;14.416;2023-05-29T06:37:14;10.10;;;5.88;;
38358;SDS011;42072;48.044;14.416;2023-05-29T06:39:44;11.27;;;6.10;;
38358;SDS011;42072;48.044;14.416;2023-05-29T06:42:12;8.20;;;5.47;;
38358;SDS011;42072;48.044;14.416;2023-05-29T06:44:39;10.57;;;5.75;;
38358;SDS011;42072;48.044;14.416;2023-05-29T06:47:07;8.38;;;5.47;;
38358;SDS011;42072;48.044;14.416;2023-05-29T06:49:34;9.85;;;6.20;;
38358;SDS011;42072;48.044;14.416;2023-05-29T06:52:01;9.48;;;5.60;;
38358;SDS011;42072;48.044;14.416;2023-05-29T06:54:29;11.52;;;6.00;;
38358;SDS011;42072;48.044;14.416;2023-05-29T06:56:56;11.10;;;5.78;;
38358;SDS011;42072;48.044;14.416;2023-05-29T06:59:37;9.93;;;5.35;;
38358;SDS011;42072;48.044;14.416;2023-05-29T07:02:05;11.02;;;6.50;;
38358;SDS011;42072;48.044;14.416;2023-05-29T07:04:32;10.75;;;5.80;;
38358;SDS011;42072;48.044;14.416;2023-05-29T07:07:00;10.75;;;6.80;;
38358;SDS011;42072;48.044;14.416;2023-05-29T07:09:27;12.25;;;6.38;;
38358;SDS011;42072;48.044;14.416;2023-05-29T07:11:54;10.95;;;6.43;;
38358;SDS011;42072;48.044;14.416;2023-05-29T07:14:21;9.57;;;6.53;;
38358;SDS011;42072;48.044;14.416;2023-05-29T07:16:48;10.32;;;5.93;;
38358;SDS011;42072;48.044;14.416;2023-05-29T07:19:16;12.55;;;6.80;;
38358;SDS011;42072;48.044;14.416;2023-05-29T07:21:47;9.15;;;6.07;;
38358;SDS011;42072;48.044;14.416;2023-05-29T07:24:15;12.52;;;6.07;;
38358;SDS011;42072;48.044;14.416;2023-05-29T07:26:42;12.75;;;6.85;;
38358;SDS011;42072;48.044;14.416;2023-05-29T07:29:09;10.50;;;6.25;;
38358;SDS011;42072;48.044;14.416;2023-05-29T07:31:37;9.70;;;6.35;;
38358;SDS011;42072;48.044;14.416;2023-05-29T07:34:07;10.77;;;5.78;;
38358;SDS011;42072;48.044;14.416;2023-05-29T07:36:34;11.88;;;7.13;;
38358;SDS011;42072;48.044;14.416;2023-05-29T07:39:02;9.73;;;6.63;;
38358;SDS011;42072;48.044;14.416;2023-05-29T07:41:32;9.95;;;6.40;;
38358;SDS011;42072;48.044;14.416;2023-05-29T07:43:59;9.13;;;5.85;;
38358;SDS011;42072;48.044;14.416;2023-05-29T07:46:26;11.30;;;5.93;;
38358;SDS011;42072;48.044;14.416;2023-05-29T07:48:53;10.45;;;6.00;;
38358;SDS011;42072;48.044;14.416;2023-05-29T07:51:21;9.75;;;5.90;;
38358;SDS011;42072;48.044;14.416;2023-05-29T07:53:48;9.05;;;5.00;;
38358;SDS011;42072;48.044;14.416;2023-05-29T07:56:15;8.70;;;4.95;;
38358;SDS011;42072;48.044;14.416;2023-05-29T07:58:43;9.85;;;5.03;;
38358;SDS011;42072;48.044;14.416;2023-05-29T08:01:10;9.38;;;5.20;;
38358;SDS011;42072;48.044;14.416;2023-05-29T08:03:41;7.68;;;5.15;;
38358;SDS011;42072;48.044;14.416;2023-05-29T08:06:10;7.60;;;4.80;;
38358;SDS011;42072;48.044;14.416;2023-05-29T08:08:37;8.85;;;4.90;;
38358;SDS011;42072;48.044;14.416;2023-05-29T08:11:05;7.10;;;4.68;;
38358;SDS011;42072;48.044;14.416;2023-05-29T08:13:32;9.15;;;4.80;;
38358;SDS011;42072;48.044;14.416;2023-05-29T08:15:59;8.65;;;4.28;;
38358;SDS011;42072;48.044;14.416;2023-05-29T08:18:27;8.73;;;4.20;;
38358;SDS011;42072;48.044;14.416;2023-05-29T08:20:57;8.88;;;4.72;;
38358;SDS011;42072;48.044;14.416;2023-05-29T08:23:25;6.53;;;4.60;;
38358;SDS011;42072;48.044;14.416;2023-05-29T08:25:52;6.75;;;4.20;;
38358;SDS011;42072;48.044;14.416;2023-05-29T08:28:20;9.02;;;4.15;;
38358;SDS011;42072;48.044;14.416;2023-05-29T08:30:48;8.32;;;4.55;;
38358;SDS011;42072;48.044;14.416;2023-05-29T08:33:15;8.05;;;3.90;;
38358;SDS011;42072;48.044;14.416;2023-05-29T08:35:43;6.90;;;4.32;;
38358;SDS011;42072;48.044;14.416;2023-05-29T08:38:10;8.52;;;4.32;;
38358;SDS011;42072;48.044;14.416;2023-05-29T08:40:37;5.40;;;3.90;;
38358;SDS011;42072;48.044;14.416;2023-05-29T08:43:10;7.47;;;4.35;;
38358;SDS011;42072;48.044;14.416;2023-05-29T08:46:01;5.97;;;4.05;;
38358;SDS011;42072;48.044;14.416;2023-05-29T08:48:30;6.15;;;4.15;;
38358;SDS011;42072;48.044;14.416;2023-05-29T08:50:58;6.63;;;4.03;;
38358;SDS011;42072;48.044;14.416;2023-05-29T08:53:28;6.72;;;3.63;;
38358;SDS011;42072;48.044;14.416;2023-05-29T08:55:58;8.77;;;4.40;;
38358;SDS011;42072;48.044;14.416;2023-05-29T08:58:26;6.43;;;4.32;;
38358;SDS011;42072;48.044;14.416;2023-05-29T09:00:53;6.60;;;3.95;;
38358;SDS011;42072;48.044;14.416;2023-05-29T09:03:22;7.80;;;3.83;;
38358;SDS011;42072;48.044;14.416;2023-05-29T09:05:50;6.28;;;3.72;;
38358;SDS011;42072;48.044;14.416;2023-05-29T09:08:17;8.60;;;4.20;;
38358;SDS011;42072;48.044;14.416;2023-05-29T09:10:45;8.02;;;3.97;;
38358;SDS011;42072;48.044;14.416;2023-05-29T09:13:12;7.40;;;4.07;;
38358;SDS011;42072;48.044;14.416;2023-05-29T09:15:41;5.68;;;3.70;;
38358;SDS011;42072;48.044;14.416;2023-05-29T09:18:12;5.75;;;3.50;;
38358;SDS011;42072;48.044;14.416;2023-05-29T09:20:39;9.57;;;4.05;;
38358;SDS011;42072;48.044;14.416;2023-05-29T09:23:07;6.25;;;3.78;;
38358;SDS011;42072;48.044;14.416;2023-05-29T09:25:39;6.82;;;3.70;;
38358;SDS011;42072;48.044;14.416;2023-05-29T09:28:10;7.55;;;3.90;;
38358;SDS011;42072;48.044;14.416;2023-05-29T09:30:41;7.00;;;3.83;;
38358;SDS011;42072;48.044;14.416;2023-05-29T09:33:12;7.82;;;3.83;;
38358;SDS011;42072;48.044;14.416;2023-05-29T09:35:42;5.63;;;3.25;;
38358;SDS011;42072;48.044;14.416;2023-05-29T09:38:14;6.30;;;3.70;;
38358;SDS011;42072;48.044;14.416;2023-05-29T09:41:03;6.75;;;3.85;;
38358;SDS011;42072;48.044;14.416;2023-05-29T09:43:31;9.18;;;3.78;;
38358;SDS011;42072;48.044;14.416;2023-05-29T09:46:00;5.45;;;3.38;;
38358;SDS011;42072;48.044;14.416;2023-05-29T09:48:29;5.70;;;3.50;;
38358;SDS011;42072;48.044;14.416;2023-05-29T09:50:56;8.15;;;3.60;;
38358;SDS011;42072;48.044;14.416;2023-05-29T09:53:25;7.70;;;4.50;;
38358;SDS011;42072;48.044;14.416;2023-05-29T09:55:55;9.13;;;5.43;;
38358;SDS011;42072;48.044;14.416;2023-05-29T09:58:26;8.40;;;4.25;;
38358;SDS011;42072;48.044;14.416;2023-05-29T10:00:55;7.55;;;4.30;;
38358;SDS011;42072;48.044;14.416;2023-05-29T10:03:25;6.68;;;4.07;;
38358;SDS011;42072;48.044;14.416;2023-05-29T10:05:54;7.05;;;3.85;;
38358;SDS011;42072;48.044;14.416;2023-05-29T10:08:24;6.43;;;3.83;;
38358;SDS011;42072;48.044;14.416;2023-05-29T10:10:59;5.57;;;3.80;;
38358;SDS011;42072;48.044;14.416;2023-05-29T10:13:39;8.50;;;4.30;;
38358;SDS011;42072;48.044;14.416;2023-05-29T10:16:10;9.98;;;4.35;;
38358;SDS011;42072;48.044;14.416;2023-05-29T10:18:44;6.75;;;4.13;;
38358;SDS011;42072;48.044;14.416;2023-05-29T10:21:17;5.45;;;4.13;;
38358;SDS011;42072;48.044;14.416;2023-05-29T10:23:46;8.48;;;4.43;;
38358;SDS011;42072;48.044;14.416;2023-05-29T10:26:19;7.57;;;4.25;;
38358;SDS011;42072;48.044;14.416;2023-05-29T10:31:39;10.25;;;4.47;;
38358;SDS011;42072;48.044;14.416;2023-05-29T10:37:15;8.57;;;3.90;;
38358;SDS011;42072;48.044;14.416;2023-05-29T10:40:07;7.93;;;4.53;;
38358;SDS011;42072;48.044;14.416;2023-05-29T10:42:46;6.82;;;4.60;;
38358;SDS011;42072;48.044;14.416;2023-05-29T10:50:46;8.27;;;4.78;;
38358;SDS011;42072;48.044;14.416;2023-05-29T10:53:18;6.47;;;4.40;;
38358;SDS011;42072;48.044;14.416;2023-05-29T10:55:50;6.82;;;4.57;;
38358;SDS011;42072;48.044;14.416;2023-05-29T10:58:19;8.23;;;4.40;;
38358;SDS011;42072;48.044;14.416;2023-05-29T11:00:51;7.80;;;5.22;;
38358;SDS011;42072;48.044;14.416;2023-05-29T11:03:21;9.20;;;4.70;;
38358;SDS011;42072;48.044;14.416;2023-05-29T11:06:07;7.28;;;4.60;;
38358;SDS011;42072;48.044;14.416;2023-05-29T11:08:52;7.38;;;4.38;;
38358;SDS011;42072;48.044;14.416;2023-05-29T11:13:55;7.47;;;4.50;;
38358;SDS011;42072;48.044;14.416;2023-05-29T11:18:57;9.57;;;4.40;;
38358;SDS011;42072;48.044;14.416;2023-05-29T11:24:26;7.88;;;4.90;;
38358;SDS011;42072;48.044;14.416;2023-05-29T11:26:55;9.25;;;4.63;;
38358;SDS011;42072;48.044;14.416;2023-05-29T11:29:26;7.05;;;4.00;;
38358;SDS011;42072;48.044;14.416;2023-05-29T11:32:04;8.02;;;4.43;;
38358;SDS011;42072;48.044;14.416;2023-05-29T11:34:35;7.90;;;4.20;;
38358;SDS011;42072;48.044;14.416;2023-05-29T11:37:07;6.70;;;4.40;;
38358;SDS011;42072;48.044;14.416;2023-05-29T11:39:37;8.23;;;4.18;;
38358;SDS011;42072;48.044;14.416;2023-05-29T11:42:05;7.95;;;4.22;;
38358;SDS011;42072;48.044;14.416;2023-05-29T11:44:34;7.82;;;5.32;;
38358;SDS011;42072;48.044;14.416;2023-05-29T11:47:02;6.07;;;4.75;;
38358;SDS011;42072;48.044;14.416;2023-05-29T11:49:31;8.43;;;4.38;;
38358;SDS011;42072;48.044;14.416;2023-05-29T11:52:10;5.55;;;4.30;;
38358;SDS011;42072;48.044;14.416;2023-05-29T11:54:43;9.02;;;4.85;;
38358;SDS011;42072;48.044;14.416;2023-05-29T11:57:18;8.65;;;4.40;;
38358;SDS011;42072;48.044;14.416;2023-05-29T11:59:47;6.82;;;4.72;;
38358;SDS011;42072;48.044;14.416;2023-05-29T12:02:19;8.43;;;5.28;;
38358;SDS011;42072;48.044;14.416;2023-05-29T12:05:00;6.22;;;4.05;;
38358;SDS011;42072;48.044;14.416;2023-05-29T12:07:34;5.68;;;4.07;;
38358;SDS011;42072;48.044;14.416;2023-05-29T12:10:08;11.40;;;5.53;;
38358;SDS011;42072;48.044;14.416;2023-05-29T12:12:41;9.50;;;5.07;;
38358;SDS011;42072;48.044;14.416;2023-05-29T12:15:09;7.30;;;4.70;;
38358;SDS011;42072;48.044;14.416;2023-05-29T12:17:37;9.48;;;4.63;;
38358;SDS011;42072;48.044;14.416;2023-05-29T12:20:05;7.97;;;4.82;;
38358;SDS011;42072;48.044;14.416;2023-05-29T12:22:37;7.63;;;4.60;;
38358;SDS011;42072;48.044;14.416;2023-05-29T12:25:12;6.38;;;4.22;;
38358;SDS011;42072;48.044;14.416;2023-05-29T12:27:42;6.63;;;4.20;;
38358;SDS011;42072;48.044;14.416;2023-05-29T12:30:13;6.22;;;4.30;;
38358;SDS011;42072;48.044;14.416;2023-05-29T12:32:59;9.60;;;6.70;;
38358;SDS011;42072;48.044;14.416;2023-05-29T12:35:28;4.88;;;3.78;;
38358;SDS011;42072;48.044;14.416;2023-05-29T12:37:57;7.25;;;3.97;;
38358;SDS011;42072;48.044;14.416;2023-05-29T12:40:27;7.70;;;4.47;;
38358;SDS011;42072;48.044;14.416;2023-05-29T12:43:02;7.93;;;4.43;;
38358;SDS011;42072;48.044;14.416;2023-05-29T12:45:32;6.30;;;4.20;;
38358;SDS011;42072;48.044;14.416;2023-05-29T12:48:04;7.32;;;4.10;;
38358;SDS011;42072;48.044;14.416;2023-05-29T12:50:33;7.05;;;3.92;;
38358;SDS011;42072;48.044;14.416;2023-05-29T12:53:08;6.40;;;4.10;;
38358;SDS011;42072;48.044;14.416;2023-05-29T12:55:38;5.07;;;4.05;;
38358;SDS011;42072;48.044;14.416;2023-05-29T12:58:10;5.95;;;4.10;;
38358;SDS011;42072;48.044;14.416;2023-05-29T13:00:43;5.30;;;3.55;;
38358;SDS011;42072;48.044;14.416;2023-05-29T13:03:12;7.75;;;3.80;;
38358;SDS011;42072;48.044;14.416;2023-05-29T13:05:39;6.10;;;3.88;;
38358;SDS011;42072;48.044;14.416;2023-05-29T13:08:07;8.65;;;4.68;;
38358;SDS011;42072;48.044;14.416;2023-05-29T13:10:34;6.88;;;4.20;;
38358;SDS011;42072;48.044;14.416;2023-05-29T13:13:03;7.20;;;4.18;;
38358;SDS011;42072;48.044;14.416;2023-05-29T13:15:30;7.97;;;4.50;;
38358;SDS011;42072;48.044;14.416;2023-05-29T13:17:59;6.55;;;4.30;;
38358;SDS011;42072;48.044;14.416;2023-05-29T13:20:27;7.45;;;4.03;;
38358;SDS011;42072;48.044;14.416;2023-05-29T13:22:55;5.57;;;3.95;;
38358;SDS011;42072;48.044;14.416;2023-05-29T13:25:22;11.25;;;4.35;;
38358;SDS011;42072;48.044;14.416;2023-05-29T13:27:52;5.75;;;4.32;;
38358;SDS011;42072;48.044;14.416;2023-05-29T13:30:19;6.82;;;4.00;;
38358;SDS011;42072;48.044;14.416;2023-05-29T13:32:49;7.65;;;4.63;;
38358;SDS011;42072;48.044;14.416;2023-05-29T13:35:18;5.05;;;3.80;;
38358;SDS011;42072;48.044;14.416;2023-05-29T13:37:46;6.40;;;4.47;;
38358;SDS011;42072;48.044;14.416;2023-05-29T13:40:13;5.75;;;3.75;;
38358;SDS011;42072;48.044;14.416;2023-05-29T13:42:41;7.43;;;3.33;;
38358;SDS011;42072;48.044;14.416;2023-05-29T13:45:08;6.43;;;4.57;;
38358;SDS011;42072;48.044;14.416;2023-05-29T13:47:36;5.40;;;4.13;;
38358;SDS011;42072;48.044;14.416;2023-05-29T13:50:03;7.40;;;4.05;;
38358;SDS011;42072;48.044;14.416;2023-05-29T13:52:32;5.65;;;4.10;;
38358;SDS011;42072;48.044;14.416;2023-05-29T13:54:59;6.30;;;4.53;;
38358;SDS011;42072;48.044;14.416;2023-05-29T13:57:31;5.28;;;3.58;;
38358;SDS011;42072;48.044;14.416;2023-05-29T13:59:58;7.35;;;4.50;;
38358;SDS011;42072;48.044;14.416;2023-05-29T14:02:26;5.95;;;4.20;;
38358;SDS011;42072;48.044;14.416;2023-05-29T14:04:53;8.23;;;4.03;;
38358;SDS011;42072;48.044;14.416;2023-05-29T14:07:20;7.20;;;3.90;;
38358;SDS011;42072;48.044;14.416;2023-05-29T14:09:47;7.25;;;4.00;;
38358;SDS011;42072;48.044;14.416;2023-05-29T14:12:15;8.45;;;4.10;;
38358;SDS011;42072;48.044;14.416;2023-05-29T14:14:42;7.28;;;4.70;;
38358;SDS011;42072;48.044;14.416;2023-05-29T14:17:10;5.47;;;4.13;;
38358;SDS011;42072;48.044;14.416;2023-05-29T14:19:39;10.27;;;4.50;;
38358;SDS011;42072;48.044;14.416;2023-05-29T14:22:06;6.88;;;3.92;;
38358;SDS011;42072;48.044;14.416;2023-05-29T14:24:33;7.63;;;4.63;;
38358;SDS011;42072;48.044;14.416;2023-05-29T14:27:02;7.68;;;4.15;;
38358;SDS011;42072;48.044;14.416;2023-05-29T14:29:30;5.70;;;4.28;;
38358;SDS011;42072;48.044;14.416;2023-05-29T14:31:57;6.57;;;3.83;;
38358;SDS011;42072;48.044;14.416;2023-05-29T14:34:25;6.78;;;4.25;;
38358;SDS011;42072;48.044;14.416;2023-05-29T14:36:52;6.80;;;3.90;;
38358;SDS011;42072;48.044;14.416;2023-05-29T14:39:19;8.98;;;5.05;;
38358;SDS011;42072;48.044;14.416;2023-05-29T14:41:46;5.43;;;3.85;;
38358;SDS011;42072;48.044;14.416;2023-05-29T14:44:14;6.00;;;4.05;;
38358;SDS011;42072;48.044;14.416;2023-05-29T14:46:41;6.07;;;4.10;;
38358;SDS011;42072;48.044;14.416;2023-05-29T14:49:08;8.25;;;4.38;;
38358;SDS011;42072;48.044;14.416;2023-05-29T14:51:36;9.85;;;4.55;;
38358;SDS011;42072;48.044;14.416;2023-05-29T14:54:03;6.82;;;3.92;;
38358;SDS011;42072;48.044;14.416;2023-05-29T14:56:30;6.60;;;4.05;;
38358;SDS011;42072;48.044;14.416;2023-05-29T14:58:57;6.72;;;3.67;;
38358;SDS011;42072;48.044;14.416;2023-05-29T15:01:25;6.60;;;3.60;;
38358;SDS011;42072;48.044;14.416;2023-05-29T15:03:52;8.32;;;4.25;;
38358;SDS011;42072;48.044;14.416;2023-05-29T15:06:19;10.38;;;4.05;;
38358;SDS011;42072;48.044;14.416;2023-05-29T15:08:47;6.53;;;3.95;;